sensor_id;sensor_type;location;lat;lon;timestamp;P1;durP1;ratioP1;P2;durP2;ratioP2
52868;SDS011;39100;53.480;6.158;2023-05-10T00:02:02;4.70;;;4.20;;
52868;SDS011;39100;53.480;6.158;2023-05-10T00:04:27;5.35;;;4.45;;
52868;SDS011;39100;53.480;6.158;2023-05-10T00:06:53;5.15;;;4.32;;
52868;SDS011;39100;53.480;6.158;2023-05-10T00:09:19;5.47;;;4.35;;
52868;SDS011;39100;53.480;6.158;2023-05-10T00:11:45;5.28;;;4.43;;
52868;SDS011;39100;53.480;6.158;2023-05-10T00:14:11;7.53;;;4.60;;
52868;SDS011;39100;53.480;6.158;2023-05-10T00:16:36;5.90;;;4.32;;
52868;SDS011;39100;53.480;6.158;2023-05-10T00:19:02;6.40;;;4.28;;
52868;SDS011;39100;53.480;6.158;2023-05-10T00:21:28;5.88;;;4.10;;
52868;SDS011;39100;53.480;6.158;2023-05-10T00:23:53;6.32;;;4.13;;
52868;SDS011;39100;53.480;6.158;2023-05-10T00:26:19;6.40;;;3.92;;
52868;SDS011;39100;53.480;6.158;2023-05-10T00:28:45;5.97;;;3.88;;
52868;SDS011;39100;53.480;6.158;2023-05-10T00:31:11;5.93;;;4.35;;
52868;SDS011;39100;53.480;6.158;2023-05-10T00:33:36;6.43;;;3.88;;
52868;SDS011;39100;53.480;6.158;2023-05-10T00:36:02;6.38;;;4.05;;
52868;SDS011;39100;53.480;6.158;2023-05-10T00:38:27;7.43;;;4.03;;
52868;SDS011;39100;53.480;6.158;2023-05-10T00:40:53;6.82;;;4.10;;
52868;SDS011;39100;53.480;6.158;2023-05-10T00:43:19;5.90;;;3.83;;
52868;SDS011;39100;53.480;6.158;2023-05-10T00:45:44;5.05;;;3.67;;
52868;SDS011;39100;53.480;6.158;2023-05-10T00:48:10;6.22;;;3.80;;
52868;SDS011;39100;53.480;6.158;2023-05-10T00:50:36;5.32;;;3.78;;
52868;SDS011;39100;53.480;6.158;2023-05-10T00:53:02;6.32;;;4.63;;
52868;SDS011;39100;53.480;6.158;2023-05-10T00:55:28;6.20;;;4.22;;
52868;SDS011;39100;53.480;6.158;2023-05-10T00:57:54;6.18;;;4.05;;
52868;SDS011;39100;53.480;6.158;2023-05-10T01:00:20;6.68;;;4.10;;
52868;SDS011;39100;53.480;6.158;2023-05-10T01:02:45;4.60;;;3.83;;
52868;SDS011;39100;53.480;6.158;2023-05-10T01:05:11;5.32;;;3.60;;
52868;SDS011;39100;53.480;6.158;2023-05-10T01:07:37;4.75;;;3.47;;
52868;SDS011;39100;53.480;6.158;2023-05-10T01:10:04;5.07;;;3.75;;
52868;SDS011;39100;53.480;6.158;2023-05-10T01:12:31;4.60;;;3.40;;
52868;SDS011;39100;53.480;6.158;2023-05-10T01:14:57;4.28;;;3.28;;
52868;SDS011;39100;53.480;6.158;2023-05-10T01:17:22;4.88;;;3.35;;
52868;SDS011;39100;53.480;6.158;2023-05-10T01:19:49;5.28;;;3.53;;
52868;SDS011;39100;53.480;6.158;2023-05-10T01:22:39;3.70;;;2.92;;
52868;SDS011;39100;53.480;6.158;2023-05-10T01:25:23;3.17;;;2.70;;
52868;SDS011;39100;53.480;6.158;2023-05-10T01:33:59;2.08;;;1.92;;
52868;SDS011;39100;53.480;6.158;2023-05-10T01:36:32;1.30;;;1.20;;
52868;SDS011;39100;53.480;6.158;2023-05-10T01:44:34;2.25;;;2.03;;
52868;SDS011;39100;53.480;6.158;2023-05-10T01:47:04;3.17;;;2.20;;
52868;SDS011;39100;53.480;6.158;2023-05-10T01:49:43;2.97;;;2.42;;
52868;SDS011;39100;53.480;6.158;2023-05-10T01:52:15;1.25;;;1.00;;
52868;SDS011;39100;53.480;6.158;2023-05-10T01:54:55;1.48;;;1.10;;
52868;SDS011;39100;53.480;6.158;2023-05-10T01:57:24;1.38;;;0.95;;
52868;SDS011;39100;53.480;6.158;2023-05-10T01:59:52;1.00;;;0.82;;
52868;SDS011;39100;53.480;6.158;2023-05-10T02:02:20;0.65;;;0.40;;
52868;SDS011;39100;53.480;6.158;2023-05-10T02:04:46;0.60;;;0.40;;
52868;SDS011;39100;53.480;6.158;2023-05-10T02:07:12;0.22;;;0.20;;
52868;SDS011;39100;53.480;6.158;2023-05-10T02:09:39;0.50;;;0.43;;
52868;SDS011;39100;53.480;6.158;2023-05-10T02:12:07;0.35;;;0.30;;
52868;SDS011;39100;53.480;6.158;2023-05-10T02:14:34;0.68;;;0.52;;
52868;SDS011;39100;53.480;6.158;2023-05-10T02:17:02;0.38;;;0.35;;
52868;SDS011;39100;53.480;6.158;2023-05-10T02:19:30;0.30;;;0.30;;
52868;SDS011;39100;53.480;6.158;2023-05-10T02:21:57;0.40;;;0.40;;
52868;SDS011;39100;53.480;6.158;2023-05-10T02:24:24;0.60;;;0.60;;
52868;SDS011;39100;53.480;6.158;2023-05-10T02:26:51;0.80;;;0.50;;
52868;SDS011;39100;53.480;6.158;2023-05-10T02:29:20;0.30;;;0.30;;
52868;SDS011;39100;53.480;6.158;2023-05-10T02:31:52;0.40;;;0.40;;
52868;SDS011;39100;53.480;6.158;2023-05-10T02:34:21;0.55;;;0.30;;
52868;SDS011;39100;53.480;6.158;2023-05-10T02:36:48;0.40;;;0.40;;
52868;SDS011;39100;53.480;6.158;2023-05-10T02:39:16;0.40;;;0.30;;
52868;SDS011;39100;53.480;6.158;2023-05-10T02:41:44;1.38;;;0.70;;
52868;SDS011;39100;53.480;6.158;2023-05-10T02:44:11;0.70;;;0.70;;
52868;SDS011;39100;53.480;6.158;2023-05-10T02:46:39;0.57;;;0.57;;
52868;SDS011;39100;53.480;6.158;2023-05-10T02:49:04;1.00;;;0.88;;
52868;SDS011;39100;53.480;6.158;2023-05-10T02:51:31;0.95;;;0.68;;
52868;SDS011;39100;53.480;6.158;2023-05-10T02:54:33;0.63;;;0.50;;
52868;SDS011;39100;53.480;6.158;2023-05-10T02:56:56;0.40;;;0.40;;
52868;SDS011;39100;53.480;6.158;2023-05-10T02:59:23;0.85;;;0.60;;
52868;SDS011;39100;53.480;6.158;2023-05-10T03:01:48;0.73;;;0.50;;
52868;SDS011;39100;53.480;6.158;2023-05-10T03:04:14;0.30;;;0.30;;
52868;SDS011;39100;53.480;6.158;2023-05-10T03:06:40;1.13;;;0.60;;
52868;SDS011;39100;53.480;6.158;2023-05-10T03:09:05;0.70;;;0.70;;
52868;SDS011;39100;53.480;6.158;2023-05-10T03:11:47;1.65;;;0.93;;
52868;SDS011;39100;53.480;6.158;2023-05-10T03:20:04;1.10;;;1.00;;
52868;SDS011;39100;53.480;6.158;2023-05-10T03:22:36;0.90;;;0.90;;
52868;SDS011;39100;53.480;6.158;2023-05-10T03:25:04;0.70;;;0.70;;
52868;SDS011;39100;53.480;6.158;2023-05-10T03:27:31;0.50;;;0.50;;
52868;SDS011;39100;53.480;6.158;2023-05-10T03:29:58;0.60;;;0.40;;
52868;SDS011;39100;53.480;6.158;2023-05-10T03:32:26;0.60;;;0.60;;
52868;SDS011;39100;53.480;6.158;2023-05-10T03:34:55;0.55;;;0.55;;
52868;SDS011;39100;53.480;6.158;2023-05-10T03:37:20;0.40;;;0.40;;
52868;SDS011;39100;53.480;6.158;2023-05-10T03:39:46;0.30;;;0.30;;
52868;SDS011;39100;53.480;6.158;2023-05-10T03:42:12;0.30;;;0.30;;
52868;SDS011;39100;53.480;6.158;2023-05-10T03:44:40;0.30;;;0.30;;
52868;SDS011;39100;53.480;6.158;2023-05-10T03:47:06;0.30;;;0.15;;
52868;SDS011;39100;53.480;6.158;2023-05-10T03:49:31;0.20;;;0.20;;
52868;SDS011;39100;53.480;6.158;2023-05-10T03:51:57;0.40;;;0.22;;
52868;SDS011;39100;53.480;6.158;2023-05-10T03:54:22;0.20;;;0.10;;
52868;SDS011;39100;53.480;6.158;2023-05-10T03:56:48;0.20;;;0.20;;
52868;SDS011;39100;53.480;6.158;2023-05-10T03:59:13;0.30;;;0.30;;
52868;SDS011;39100;53.480;6.158;2023-05-10T04:01:39;0.30;;;0.30;;
52868;SDS011;39100;53.480;6.158;2023-05-10T04:04:05;0.40;;;0.40;;
52868;SDS011;39100;53.480;6.158;2023-05-10T04:06:30;0.40;;;0.30;;
52868;SDS011;39100;53.480;6.158;2023-05-10T04:08:56;0.40;;;0.35;;
52868;SDS011;39100;53.480;6.158;2023-05-10T04:11:25;0.40;;;0.40;;
52868;SDS011;39100;53.480;6.158;2023-05-10T04:13:50;0.30;;;0.30;;
52868;SDS011;39100;53.480;6.158;2023-05-10T04:16:16;0.50;;;0.30;;
52868;SDS011;39100;53.480;6.158;2023-05-10T04:18:42;0.30;;;0.30;;
52868;SDS011;39100;53.480;6.158;2023-05-10T04:21:11;0.47;;;0.47;;
52868;SDS011;39100;53.480;6.158;2023-05-10T04:23:38;0.38;;;0.38;;
52868;SDS011;39100;53.480;6.158;2023-05-10T04:26:03;0.80;;;0.60;;
52868;SDS011;39100;53.480;6.158;2023-05-10T04:28:29;0.68;;;0.60;;
52868;SDS011;39100;53.480;6.158;2023-05-10T04:36:12;1.05;;;0.80;;
52868;SDS011;39100;53.480;6.158;2023-05-10T04:38:38;1.45;;;0.82;;
52868;SDS011;39100;53.480;6.158;2023-05-10T04:41:04;1.42;;;1.23;;
52868;SDS011;39100;53.480;6.158;2023-05-10T04:43:33;1.13;;;1.02;;
52868;SDS011;39100;53.480;6.158;2023-05-10T04:45:59;0.70;;;0.70;;
52868;SDS011;39100;53.480;6.158;2023-05-10T04:48:24;1.02;;;0.57;;
52868;SDS011;39100;53.480;6.158;2023-05-10T04:50:50;0.70;;;0.68;;
52868;SDS011;39100;53.480;6.158;2023-05-10T04:53:15;0.40;;;0.40;;
52868;SDS011;39100;53.480;6.158;2023-05-10T04:55:41;0.38;;;0.30;;
52868;SDS011;39100;53.480;6.158;2023-05-10T04:58:07;0.57;;;0.20;;
52868;SDS011;39100;53.480;6.158;2023-05-10T05:00:33;0.20;;;0.20;;
52868;SDS011;39100;53.480;6.158;2023-05-10T05:02:58;0.20;;;0.20;;
52868;SDS011;39100;53.480;6.158;2023-05-10T05:05:24;0.30;;;0.30;;
52868;SDS011;39100;53.480;6.158;2023-05-10T05:07:50;0.70;;;0.47;;
52868;SDS011;39100;53.480;6.158;2023-05-10T05:10:15;0.60;;;0.50;;
52868;SDS011;39100;53.480;6.158;2023-05-10T05:12:41;1.05;;;0.60;;
52868;SDS011;39100;53.480;6.158;2023-05-10T05:15:07;0.68;;;0.50;;
52868;SDS011;39100;53.480;6.158;2023-05-10T05:17:34;0.73;;;0.60;;
52868;SDS011;39100;53.480;6.158;2023-05-10T05:20:00;1.30;;;0.70;;
52868;SDS011;39100;53.480;6.158;2023-05-10T05:22:26;1.17;;;0.77;;
52868;SDS011;39100;53.480;6.158;2023-05-10T05:24:54;1.13;;;0.63;;
52868;SDS011;39100;53.480;6.158;2023-05-10T05:27:21;0.73;;;0.70;;
52868;SDS011;39100;53.480;6.158;2023-05-10T05:29:49;0.80;;;0.70;;
52868;SDS011;39100;53.480;6.158;2023-05-10T05:32:16;0.50;;;0.40;;
52868;SDS011;39100;53.480;6.158;2023-05-10T05:34:43;0.63;;;0.60;;
52868;SDS011;39100;53.480;6.158;2023-05-10T05:37:12;0.60;;;0.60;;
52868;SDS011;39100;53.480;6.158;2023-05-10T05:39:41;1.33;;;0.50;;
52868;SDS011;39100;53.480;6.158;2023-05-10T05:42:07;0.40;;;0.38;;
52868;SDS011;39100;53.480;6.158;2023-05-10T05:44:34;0.40;;;0.32;;
52868;SDS011;39100;53.480;6.158;2023-05-10T05:46:59;0.30;;;0.30;;
52868;SDS011;39100;53.480;6.158;2023-05-10T05:49:25;0.50;;;0.50;;
52868;SDS011;39100;53.480;6.158;2023-05-10T05:51:50;1.58;;;0.88;;
52868;SDS011;39100;53.480;6.158;2023-05-10T05:54:16;0.70;;;0.40;;
52868;SDS011;39100;53.480;6.158;2023-05-10T05:56:41;0.77;;;0.30;;
52868;SDS011;39100;53.480;6.158;2023-05-10T05:59:07;0.98;;;0.40;;
52868;SDS011;39100;53.480;6.158;2023-05-10T06:01:33;0.30;;;0.20;;
52868;SDS011;39100;53.480;6.158;2023-05-10T06:03:58;0.40;;;0.40;;
52868;SDS011;39100;53.480;6.158;2023-05-10T06:06:24;0.57;;;0.43;;
52868;SDS011;39100;53.480;6.158;2023-05-10T06:08:49;0.30;;;0.30;;
52868;SDS011;39100;53.480;6.158;2023-05-10T06:11:15;0.30;;;0.20;;
52868;SDS011;39100;53.480;6.158;2023-05-10T06:13:40;0.30;;;0.22;;
52868;SDS011;39100;53.480;6.158;2023-05-10T06:16:07;0.32;;;0.30;;
52868;SDS011;39100;53.480;6.158;2023-05-10T06:18:32;0.22;;;0.20;;
52868;SDS011;39100;53.480;6.158;2023-05-10T06:20:58;0.30;;;0.22;;
52868;SDS011;39100;53.480;6.158;2023-05-10T06:23:24;0.32;;;0.20;;
52868;SDS011;39100;53.480;6.158;2023-05-10T06:25:50;0.45;;;0.45;;
52868;SDS011;39100;53.480;6.158;2023-05-10T06:28:16;0.50;;;0.35;;
52868;SDS011;39100;53.480;6.158;2023-05-10T06:30:42;0.45;;;0.30;;
52868;SDS011;39100;53.480;6.158;2023-05-10T06:33:07;0.15;;;0.15;;
52868;SDS011;39100;53.480;6.158;2023-05-10T06:35:33;0.28;;;0.20;;
52868;SDS011;39100;53.480;6.158;2023-05-10T06:37:59;0.50;;;0.30;;
52868;SDS011;39100;53.480;6.158;2023-05-10T06:40:24;1.13;;;0.30;;
52868;SDS011;39100;53.480;6.158;2023-05-10T06:42:50;0.20;;;0.20;;
52868;SDS011;39100;53.480;6.158;2023-05-10T06:45:16;0.25;;;0.20;;
52868;SDS011;39100;53.480;6.158;2023-05-10T06:47:42;0.17;;;0.10;;
52868;SDS011;39100;53.480;6.158;2023-05-10T06:50:08;0.22;;;0.20;;
52868;SDS011;39100;53.480;6.158;2023-05-10T06:52:34;0.63;;;0.60;;
52868;SDS011;39100;53.480;6.158;2023-05-10T06:55:00;0.20;;;0.13;;
52868;SDS011;39100;53.480;6.158;2023-05-10T06:57:26;0.38;;;0.10;;
52868;SDS011;39100;53.480;6.158;2023-05-10T06:59:51;0.20;;;0.20;;
52868;SDS011;39100;53.480;6.158;2023-05-10T07:02:17;0.20;;;0.20;;
52868;SDS011;39100;53.480;6.158;2023-05-10T07:04:43;0.15;;;0.15;;
52868;SDS011;39100;53.480;6.158;2023-05-10T07:07:08;0.10;;;0.10;;
52868;SDS011;39100;53.480;6.158;2023-05-10T07:09:34;0.30;;;0.20;;
52868;SDS011;39100;53.480;6.158;2023-05-10T07:12:00;0.20;;;0.10;;
52868;SDS011;39100;53.480;6.158;2023-05-10T07:14:26;0.57;;;0.20;;
52868;SDS011;39100;53.480;6.158;2023-05-10T07:16:52;0.55;;;0.22;;
52868;SDS011;39100;53.480;6.158;2023-05-10T07:19:18;0.65;;;0.30;;
52868;SDS011;39100;53.480;6.158;2023-05-10T07:21:44;0.10;;;0.10;;
52868;SDS011;39100;53.480;6.158;2023-05-10T07:24:10;0.32;;;0.15;;
52868;SDS011;39100;53.480;6.158;2023-05-10T07:26:36;0.25;;;0.20;;
52868;SDS011;39100;53.480;6.158;2023-05-10T07:29:01;0.63;;;0.30;;
52868;SDS011;39100;53.480;6.158;2023-05-10T07:31:27;0.20;;;0.20;;
52868;SDS011;39100;53.480;6.158;2023-05-10T07:33:53;0.10;;;0.10;;
52868;SDS011;39100;53.480;6.158;2023-05-10T07:36:18;0.43;;;0.10;;
52868;SDS011;39100;53.480;6.158;2023-05-10T07:38:44;0.32;;;0.10;;
52868;SDS011;39100;53.480;6.158;2023-05-10T07:41:11;0.38;;;0.20;;
52868;SDS011;39100;53.480;6.158;2023-05-10T07:43:37;0.10;;;0.10;;
52868;SDS011;39100;53.480;6.158;2023-05-10T07:46:02;1.23;;;0.20;;
52868;SDS011;39100;53.480;6.158;2023-05-10T07:48:28;0.45;;;0.30;;
52868;SDS011;39100;53.480;6.158;2023-05-10T07:50:53;0.22;;;0.22;;
52868;SDS011;39100;53.480;6.158;2023-05-10T07:53:19;0.52;;;0.30;;
52868;SDS011;39100;53.480;6.158;2023-05-10T07:55:49;0.17;;;0.10;;
52868;SDS011;39100;53.480;6.158;2023-05-10T07:58:15;0.30;;;0.25;;
52868;SDS011;39100;53.480;6.158;2023-05-10T08:00:41;1.00;;;0.32;;
52868;SDS011;39100;53.480;6.158;2023-05-10T08:03:06;0.77;;;0.30;;
52868;SDS011;39100;53.480;6.158;2023-05-10T08:05:32;0.50;;;0.40;;
52868;SDS011;39100;53.480;6.158;2023-05-10T08:07:58;0.47;;;0.30;;
52868;SDS011;39100;53.480;6.158;2023-05-10T08:10:24;0.30;;;0.30;;
52868;SDS011;39100;53.480;6.158;2023-05-10T08:12:50;0.40;;;0.15;;
52868;SDS011;39100;53.480;6.158;2023-05-10T08:15:16;1.23;;;0.30;;
52868;SDS011;39100;53.480;6.158;2023-05-10T08:17:41;0.80;;;0.30;;
52868;SDS011;39100;53.480;6.158;2023-05-10T08:20:08;1.25;;;0.30;;
52868;SDS011;39100;53.480;6.158;2023-05-10T08:22:34;0.73;;;0.50;;
52868;SDS011;39100;53.480;6.158;2023-05-10T08:24:59;0.60;;;0.50;;
52868;SDS011;39100;53.480;6.158;2023-05-10T08:27:25;0.50;;;0.45;;
52868;SDS011;39100;53.480;6.158;2023-05-10T08:29:50;0.43;;;0.40;;
52868;SDS011;39100;53.480;6.158;2023-05-10T08:32:16;1.05;;;0.65;;
52868;SDS011;39100;53.480;6.158;2023-05-10T08:34:42;0.85;;;0.73;;
52868;SDS011;39100;53.480;6.158;2023-05-10T08:37:08;0.82;;;0.63;;
52868;SDS011;39100;53.480;6.158;2023-05-10T08:39:35;0.90;;;0.77;;
52868;SDS011;39100;53.480;6.158;2023-05-10T08:42:01;0.68;;;0.60;;
52868;SDS011;39100;53.480;6.158;2023-05-10T08:44:30;1.33;;;0.60;;
52868;SDS011;39100;53.480;6.158;2023-05-10T08:46:57;1.10;;;0.70;;
52868;SDS011;39100;53.480;6.158;2023-05-10T08:49:28;1.75;;;0.40;;
52868;SDS011;39100;53.480;6.158;2023-05-10T08:51:56;0.60;;;0.60;;
52868;SDS011;39100;53.480;6.158;2023-05-10T08:54:24;0.47;;;0.45;;
52868;SDS011;39100;53.480;6.158;2023-05-10T08:56:50;0.55;;;0.45;;
52868;SDS011;39100;53.480;6.158;2023-05-10T08:59:16;0.40;;;0.40;;
52868;SDS011;39100;53.480;6.158;2023-05-10T09:01:42;1.10;;;0.57;;
52868;SDS011;39100;53.480;6.158;2023-05-10T09:04:09;0.93;;;0.30;;
52868;SDS011;39100;53.480;6.158;2023-05-10T09:06:35;0.30;;;0.28;;
52868;SDS011;39100;53.480;6.158;2023-05-10T09:09:01;1.13;;;0.60;;
52868;SDS011;39100;53.480;6.158;2023-05-10T09:11:28;0.40;;;0.40;;
52868;SDS011;39100;53.480;6.158;2023-05-10T09:13:55;0.50;;;0.30;;
52868;SDS011;39100;53.480;6.158;2023-05-10T09:16:21;0.40;;;0.35;;
52868;SDS011;39100;53.480;6.158;2023-05-10T09:18:47;0.30;;;0.30;;
52868;SDS011;39100;53.480;6.158;2023-05-10T09:21:14;1.85;;;0.38;;
52868;SDS011;39100;53.480;6.158;2023-05-10T09:23:42;0.45;;;0.40;;
52868;SDS011;39100;53.480;6.158;2023-05-10T09:26:08;0.60;;;0.47;;
52868;SDS011;39100;53.480;6.158;2023-05-10T09:28:34;0.45;;;0.45;;
52868;SDS011;39100;53.480;6.158;2023-05-10T09:31:19;0.57;;;0.57;;
52868;SDS011;39100;53.480;6.158;2023-05-10T09:33:45;1.17;;;0.50;;
52868;SDS011;39100;53.480;6.158;2023-05-10T09:36:12;0.55;;;0.40;;
52868;SDS011;39100;53.480;6.158;2023-05-10T09:38:51;0.40;;;0.40;;
52868;SDS011;39100;53.480;6.158;2023-05-10T09:43:44;0.60;;;0.50;;
52868;SDS011;39100;53.480;6.158;2023-05-10T09:46:09;0.57;;;0.50;;
52868;SDS011;39100;53.480;6.158;2023-05-10T09:48:40;0.40;;;0.40;;
52868;SDS011;39100;53.480;6.158;2023-05-10T09:51:07;0.70;;;0.40;;
52868;SDS011;39100;53.480;6.158;2023-05-10T09:53:33;0.50;;;0.50;;
52868;SDS011;39100;53.480;6.158;2023-05-10T09:56:00;1.08;;;0.60;;
52868;SDS011;39100;53.480;6.158;2023-05-10T09:58:25;0.73;;;0.70;;
52868;SDS011;39100;53.480;6.158;2023-05-10T10:00:51;0.60;;;0.45;;
52868;SDS011;39100;53.480;6.158;2023-05-10T10:03:19;1.15;;;0.70;;
52868;SDS011;39100;53.480;6.158;2023-05-10T10:05:46;1.23;;;0.80;;
52868;SDS011;39100;53.480;6.158;2023-05-10T10:08:13;1.23;;;0.70;;
52868;SDS011;39100;53.480;6.158;2023-05-10T10:10:39;0.77;;;0.70;;
52868;SDS011;39100;53.480;6.158;2023-05-10T10:13:05;1.50;;;0.60;;
52868;SDS011;39100;53.480;6.158;2023-05-10T10:15:32;2.00;;;0.98;;
52868;SDS011;39100;53.480;6.158;2023-05-10T10:17:59;1.00;;;0.82;;
52868;SDS011;39100;53.480;6.158;2023-05-10T10:20:25;1.30;;;1.00;;
52868;SDS011;39100;53.480;6.158;2023-05-10T10:22:52;0.90;;;0.80;;
52868;SDS011;39100;53.480;6.158;2023-05-10T10:25:19;1.25;;;1.15;;
52868;SDS011;39100;53.480;6.158;2023-05-10T10:30:29;2.50;;;1.10;;
52868;SDS011;39100;53.480;6.158;2023-05-10T10:35:58;1.10;;;1.00;;
52868;SDS011;39100;53.480;6.158;2023-05-10T10:38:25;1.08;;;0.98;;
52868;SDS011;39100;53.480;6.158;2023-05-10T10:41:09;2.60;;;1.70;;
52868;SDS011;39100;53.480;6.158;2023-05-10T10:43:36;2.83;;;1.90;;
52868;SDS011;39100;53.480;6.158;2023-05-10T10:46:11;1.63;;;1.50;;
52868;SDS011;39100;53.480;6.158;2023-05-10T10:48:48;2.90;;;1.98;;
52868;SDS011;39100;53.480;6.158;2023-05-10T10:51:32;1.92;;;1.73;;
52868;SDS011;39100;53.480;6.158;2023-05-10T10:54:08;1.77;;;1.35;;
52868;SDS011;39100;53.480;6.158;2023-05-10T10:56:35;2.70;;;1.33;;
52868;SDS011;39100;53.480;6.158;2023-05-10T10:59:00;2.00;;;1.40;;
52868;SDS011;39100;53.480;6.158;2023-05-10T11:01:26;1.70;;;1.30;;
52868;SDS011;39100;53.480;6.158;2023-05-10T11:06:31;3.55;;;1.90;;
52868;SDS011;39100;53.480;6.158;2023-05-10T11:08:58;4.47;;;2.28;;
52868;SDS011;39100;53.480;6.158;2023-05-10T11:11:24;2.85;;;1.75;;
52868;SDS011;39100;53.480;6.158;2023-05-10T11:13:50;3.17;;;2.08;;
52868;SDS011;39100;53.480;6.158;2023-05-10T11:18:58;2.55;;;1.80;;
52868;SDS011;39100;53.480;6.158;2023-05-10T11:21:26;2.50;;;2.22;;
52868;SDS011;39100;53.480;6.158;2023-05-10T11:23:53;3.47;;;2.55;;
52868;SDS011;39100;53.480;6.158;2023-05-10T11:26:33;2.00;;;1.73;;
52868;SDS011;39100;53.480;6.158;2023-05-10T11:29:00;2.47;;;1.95;;
52868;SDS011;39100;53.480;6.158;2023-05-10T11:31:26;2.28;;;1.80;;
52868;SDS011;39100;53.480;6.158;2023-05-10T11:33:57;2.85;;;2.15;;
52868;SDS011;39100;53.480;6.158;2023-05-10T11:36:24;3.42;;;1.73;;
52868;SDS011;39100;53.480;6.158;2023-05-10T11:38:51;2.28;;;1.98;;
52868;SDS011;39100;53.480;6.158;2023-05-10T11:41:18;1.60;;;1.50;;
52868;SDS011;39100;53.480;6.158;2023-05-10T11:43:47;1.95;;;1.75;;
52868;SDS011;39100;53.480;6.158;2023-05-10T11:46:15;3.22;;;1.58;;
52868;SDS011;39100;53.480;6.158;2023-05-10T11:48:43;1.52;;;1.42;;
52868;SDS011;39100;53.480;6.158;2023-05-10T11:51:09;2.08;;;1.88;;
52868;SDS011;39100;53.480;6.158;2023-05-10T11:53:35;1.50;;;1.30;;
52868;SDS011;39100;53.480;6.158;2023-05-10T11:56:10;1.98;;;1.50;;
52868;SDS011;39100;53.480;6.158;2023-05-10T11:58:37;2.53;;;1.38;;
52868;SDS011;39100;53.480;6.158;2023-05-10T12:01:04;1.75;;;1.45;;
52868;SDS011;39100;53.480;6.158;2023-05-10T12:03:31;2.45;;;2.25;;
52868;SDS011;39100;53.480;6.158;2023-05-10T12:05:57;2.50;;;2.30;;
52868;SDS011;39100;53.480;6.158;2023-05-10T12:08:24;2.05;;;1.88;;
52868;SDS011;39100;53.480;6.158;2023-05-10T12:10:52;2.20;;;1.95;;
52868;SDS011;39100;53.480;6.158;2023-05-10T12:13:18;3.35;;;2.55;;
52868;SDS011;39100;53.480;6.158;2023-05-10T12:15:45;4.80;;;3.20;;
52868;SDS011;39100;53.480;6.158;2023-05-10T12:18:11;4.18;;;3.00;;
52868;SDS011;39100;53.480;6.158;2023-05-10T12:20:38;3.67;;;2.88;;
52868;SDS011;39100;53.480;6.158;2023-05-10T12:23:05;2.85;;;2.47;;
52868;SDS011;39100;53.480;6.158;2023-05-10T12:25:34;3.20;;;2.90;;
52868;SDS011;39100;53.480;6.158;2023-05-10T12:28:02;2.92;;;2.63;;
52868;SDS011;39100;53.480;6.158;2023-05-10T12:30:31;3.90;;;2.30;;
52868;SDS011;39100;53.480;6.158;2023-05-10T12:33:01;3.40;;;2.60;;
52868;SDS011;39100;53.480;6.158;2023-05-10T12:35:31;4.03;;;2.95;;
52868;SDS011;39100;53.480;6.158;2023-05-10T12:37:57;3.28;;;2.70;;
52868;SDS011;39100;53.480;6.158;2023-05-10T12:40:22;2.88;;;2.58;;
52868;SDS011;39100;53.480;6.158;2023-05-10T12:42:48;3.63;;;2.80;;
52868;SDS011;39100;53.480;6.158;2023-05-10T12:45:13;2.85;;;2.53;;
52868;SDS011;39100;53.480;6.158;2023-05-10T12:47:39;3.08;;;2.55;;
52868;SDS011;39100;53.480;6.158;2023-05-10T12:50:05;5.13;;;3.60;;
52868;SDS011;39100;53.480;6.158;2023-05-10T12:52:31;5.35;;;3.47;;
52868;SDS011;39100;53.480;6.158;2023-05-10T12:54:57;3.72;;;3.00;;
52868;SDS011;39100;53.480;6.158;2023-05-10T12:57:24;4.00;;;3.25;;
52868;SDS011;39100;53.480;6.158;2023-05-10T12:59:49;3.50;;;2.58;;
52868;SDS011;39100;53.480;6.158;2023-05-10T13:02:15;3.10;;;2.78;;
52868;SDS011;39100;53.480;6.158;2023-05-10T13:04:43;2.20;;;2.00;;
52868;SDS011;39100;53.480;6.158;2023-05-10T13:07:09;2.33;;;2.03;;
52868;SDS011;39100;53.480;6.158;2023-05-10T13:09:35;2.90;;;2.47;;
52868;SDS011;39100;53.480;6.158;2023-05-10T13:12:00;3.88;;;2.60;;
52868;SDS011;39100;53.480;6.158;2023-05-10T13:14:26;3.60;;;3.08;;
52868;SDS011;39100;53.480;6.158;2023-05-10T13:16:52;4.38;;;3.00;;
52868;SDS011;39100;53.480;6.158;2023-05-10T13:19:18;3.53;;;2.65;;
52868;SDS011;39100;53.480;6.158;2023-05-10T13:21:44;3.63;;;2.53;;
52868;SDS011;39100;53.480;6.158;2023-05-10T13:24:10;2.83;;;2.22;;
52868;SDS011;39100;53.480;6.158;2023-05-10T13:26:38;2.10;;;1.90;;
52868;SDS011;39100;53.480;6.158;2023-05-10T13:29:04;2.85;;;2.05;;
52868;SDS011;39100;53.480;6.158;2023-05-10T13:31:30;1.80;;;1.65;;
52868;SDS011;39100;53.480;6.158;2023-05-10T13:33:55;1.88;;;1.55;;
52868;SDS011;39100;53.480;6.158;2023-05-10T13:36:21;1.95;;;1.70;;
52868;SDS011;39100;53.480;6.158;2023-05-10T13:38:47;1.42;;;1.23;;
52868;SDS011;39100;53.480;6.158;2023-05-10T13:41:13;1.15;;;1.05;;
52868;SDS011;39100;53.480;6.158;2023-05-10T13:43:39;1.10;;;1.00;;
52868;SDS011;39100;53.480;6.158;2023-05-10T13:46:04;0.88;;;0.80;;
52868;SDS011;39100;53.480;6.158;2023-05-10T13:48:30;0.73;;;0.70;;
52868;SDS011;39100;53.480;6.158;2023-05-10T13:50:56;0.85;;;0.73;;
52868;SDS011;39100;53.480;6.158;2023-05-10T13:53:21;1.30;;;0.77;;
52868;SDS011;39100;53.480;6.158;2023-05-10T13:55:47;0.43;;;0.43;;
52868;SDS011;39100;53.480;6.158;2023-05-10T13:58:13;0.68;;;0.60;;
52868;SDS011;39100;53.480;6.158;2023-05-10T14:00:38;0.55;;;0.55;;
52868;SDS011;39100;53.480;6.158;2023-05-10T14:03:04;0.60;;;0.50;;
52868;SDS011;39100;53.480;6.158;2023-05-10T14:05:31;0.50;;;0.50;;
52868;SDS011;39100;53.480;6.158;2023-05-10T14:07:56;0.70;;;0.50;;
52868;SDS011;39100;53.480;6.158;2023-05-10T14:10:22;0.50;;;0.50;;
52868;SDS011;39100;53.480;6.158;2023-05-10T14:12:48;0.50;;;0.50;;
52868;SDS011;39100;53.480;6.158;2023-05-10T14:15:14;0.40;;;0.40;;
52868;SDS011;39100;53.480;6.158;2023-05-10T14:17:40;0.50;;;0.40;;
52868;SDS011;39100;53.480;6.158;2023-05-10T14:20:06;0.57;;;0.57;;
52868;SDS011;39100;53.480;6.158;2023-05-10T14:22:32;0.50;;;0.50;;
52868;SDS011;39100;53.480;6.158;2023-05-10T14:24:58;0.77;;;0.65;;
52868;SDS011;39100;53.480;6.158;2023-05-10T14:27:23;0.55;;;0.55;;
52868;SDS011;39100;53.480;6.158;2023-05-10T14:29:49;0.68;;;0.68;;
52868;SDS011;39100;53.480;6.158;2023-05-10T14:32:15;1.60;;;1.50;;
52868;SDS011;39100;53.480;6.158;2023-05-10T14:34:40;0.77;;;0.77;;
52868;SDS011;39100;53.480;6.158;2023-05-10T14:37:06;0.63;;;0.60;;
52868;SDS011;39100;53.480;6.158;2023-05-10T14:39:31;1.75;;;0.98;;
52868;SDS011;39100;53.480;6.158;2023-05-10T14:41:58;0.90;;;0.80;;
52868;SDS011;39100;53.480;6.158;2023-05-10T14:44:23;1.00;;;0.90;;
52868;SDS011;39100;53.480;6.158;2023-05-10T14:46:49;0.75;;;0.65;;
52868;SDS011;39100;53.480;6.158;2023-05-10T14:49:14;0.45;;;0.45;;
52868;SDS011;39100;53.480;6.158;2023-05-10T14:51:40;0.70;;;0.70;;
52868;SDS011;39100;53.480;6.158;2023-05-10T14:54:06;0.68;;;0.55;;
52868;SDS011;39100;53.480;6.158;2023-05-10T14:56:31;0.90;;;0.80;;
52868;SDS011;39100;53.480;6.158;2023-05-10T14:58:57;1.10;;;0.80;;
52868;SDS011;39100;53.480;6.158;2023-05-10T15:01:23;0.77;;;0.75;;
52868;SDS011;39100;53.480;6.158;2023-05-10T15:03:49;0.80;;;0.80;;
52868;SDS011;39100;53.480;6.158;2023-05-10T15:06:15;0.70;;;0.68;;
52868;SDS011;39100;53.480;6.158;2023-05-10T15:08:41;0.63;;;0.63;;
52868;SDS011;39100;53.480;6.158;2023-05-10T15:11:06;0.95;;;0.60;;
52868;SDS011;39100;53.480;6.158;2023-05-10T15:13:32;0.70;;;0.70;;
52868;SDS011;39100;53.480;6.158;2023-05-10T15:15:58;0.90;;;0.70;;
52868;SDS011;39100;53.480;6.158;2023-05-10T15:18:23;0.93;;;0.70;;
52868;SDS011;39100;53.480;6.158;2023-05-10T15:20:49;0.80;;;0.70;;
52868;SDS011;39100;53.480;6.158;2023-05-10T15:23:14;0.90;;;0.90;;